Time;durP1;ratioP1;P1;durP2;ratioP2;P2;SDS_P1;SDS_P2;PMS_P1;PMS_P2;Temp;Humidity;BMP_temperature;BMP_pressure;BME280_temperature;BME280_humidity;BME280_pressure;Samples;Min_cycle;Max_cycle;Signal;HPM_P1;HPM_P2
2023/03/09 00:02:20;;;;;;;5.50;1.60;;;;;;;;;;5071171;28;20313;-29
2023/03/09 00:04:48;;;;;;;2.50;1.60;;;;;;;;;;5071268;28;20205;-35
2023/03/09 00:07:16;;;;;;;4.23;1.27;;;;;;;;;;5071445;28;20225;-35
2023/03/09 00:09:43;;;;;;;1.57;1.40;;;;;;;;;;5063739;28;20205;-33
2023/03/09 00:12:10;;;;;;;2.50;1.37;;;;;;;;;;5069396;28;20220;-30
2023/03/09 00:14:37;;;;;;;3.90;1.67;;;;;;;;;;5061683;28;20206;-30
2023/03/09 00:17:04;;;;;;;3.50;1.40;;;;;;;;;;5066543;28;20221;-30
2023/03/09 00:19:32;;;;;;;2.07;1.53;;;;;;;;;;5070400;28;20225;-37
2023/03/09 00:22:00;;;;;;;2.50;1.50;;;;;;;;;;5070053;28;20280;-29
2023/03/09 00:24:29;;;;;;;1.53;0.90;;;;;;;;;;5064344;28;20197;-34
2023/03/09 00:26:58;;;;;;;3.13;1.20;;;;;;;;;;5069628;28;20263;-31
2023/03/09 00:29:26;;;;;;;0.70;0.60;;;;;;;;;;5059636;28;20205;-33
2023/03/09 00:31:53;;;;;;;3.53;1.63;;;;;;;;;;5066446;28;20218;-29
2023/03/09 00:34:21;;;;;;;2.83;2.03;;;;;;;;;;5069359;28;20204;-28
2023/03/09 00:36:49;;;;;;;1.63;1.50;;;;;;;;;;5060052;28;20294;-34
2023/03/09 00:39:17;;;;;;;5.10;1.90;;;;;;;;;;5062972;28;20205;-24
2023/03/09 00:41:46;;;;;;;7.10;1.77;;;;;;;;;;5069588;28;20198;-27
2023/03/09 00:44:14;;;;;;;1.80;1.70;;;;;;;;;;5061382;28;20214;-34
2023/03/09 00:46:41;;;;;;;4.10;0.70;;;;;;;;;;5069713;28;20267;-30
2023/03/09 00:49:11;;;;;;;3.27;1.10;;;;;;;;;;5069667;28;20240;-30
2023/03/09 00:51:38;;;;;;;0.80;0.80;;;;;;;;;;5069896;28;20228;-26
2023/03/09 00:54:05;;;;;;;5.27;1.43;;;;;;;;;;5063961;28;20220;-36
2023/03/09 00:56:32;;;;;;;3.40;1.00;;;;;;;;;;5066729;28;20227;-27
2023/03/09 00:59:01;;;;;;;1.07;0.90;;;;;;;;;;5057457;28;20210;-33
2023/03/09 01:01:28;;;;;;;0.50;0.50;;;;;;;;;;5061583;28;20208;-28
2023/03/09 01:03:55;;;;;;;2.30;0.60;;;;;;;;;;5068776;28;20209;-28
2023/03/09 01:06:22;;;;;;;0.53;0.50;;;;;;;;;;5069145;28;20232;-29
2023/03/09 01:08:50;;;;;;;0.73;0.50;;;;;;;;;;5070012;28;20208;-28
2023/03/09 01:11:18;;;;;;;2.40;0.60;;;;;;;;;;5062878;28;20205;-32
2023/03/09 01:13:45;;;;;;;1.10;0.63;;;;;;;;;;5054889;28;20206;-32
2023/03/09 01:16:14;;;;;;;0.50;0.50;;;;;;;;;;5067348;28;20205;-30
2023/03/09 01:18:41;;;;;;;1.00;0.30;;;;;;;;;;5069486;28;20257;-31
2023/03/09 01:21:09;;;;;;;1.00;0.23;;;;;;;;;;5064115;28;20198;-33
2023/03/09 01:23:37;;;;;;;0.50;0.30;;;;;;;;;;5069953;28;20198;-37
2023/03/09 01:26:04;;;;;;;0.33;0.33;;;;;;;;;;5070431;28;20200;-36
2023/03/09 01:28:32;;;;;;;0.77;0.30;;;;;;;;;;5065352;28;20194;-34
2023/03/09 01:30:59;;;;;;;2.17;0.37;;;;;;;;;;5070914;28;20209;-32
2023/03/09 01:33:27;;;;;;;0.17;0.17;;;;;;;;;;5073410;28;20221;-30
2023/03/09 01:35:54;;;;;;;0.43;0.30;;;;;;;;;;5068948;28;20205;-30
2023/03/09 01:38:22;;;;;;;1.03;0.10;;;;;;;;;;5059219;28;20225;-28
2023/03/09 01:40:49;;;;;;;0.40;0.37;;;;;;;;;;5073315;28;20232;-30
2023/03/09 01:43:27;;;;;;;0.30;0.30;;;;;;;;;;5071166;28;20203;-32
2023/03/09 01:46:13;;;;;;;0.57;0.20;;;;;;;;;;5070702;28;20201;-29
2023/03/09 01:48:42;;;;;;;0.27;0.27;;;;;;;;;;5067446;28;20205;-35
2023/03/09 01:51:11;;;;;;;0.23;0.23;;;;;;;;;;5072720;28;20201;-30
2023/03/09 01:53:38;;;;;;;2.73;0.33;;;;;;;;;;5071912;28;20217;-33
2023/03/09 01:56:05;;;;;;;0.23;0.23;;;;;;;;;;5072645;28;20205;-37
2023/03/09 01:58:33;;;;;;;0.83;0.20;;;;;;;;;;5069120;28;20197;-30
2023/03/09 02:01:00;;;;;;;0.30;0.30;;;;;;;;;;5066358;28;20206;-32
2023/03/09 02:03:30;;;;;;;0.60;0.27;;;;;;;;;;5060919;28;20244;-35
2023/03/09 02:06:00;;;;;;;0.53;0.20;;;;;;;;;;5072525;28;20211;-37
2023/03/09 02:08:28;;;;;;;0.50;0.30;;;;;;;;;;5072318;28;20203;-29
2023/03/09 02:10:57;;;;;;;1.70;0.37;;;;;;;;;;5063690;28;20205;-34
2023/03/09 02:13:26;;;;;;;0.10;0.10;;;;;;;;;;5064194;28;20292;-31
2023/03/09 02:15:53;;;;;;;0.30;0.30;;;;;;;;;;5070236;28;20202;-33
2023/03/09 02:18:21;;;;;;;1.30;0.50;;;;;;;;;;5072398;28;20217;-28
2023/03/09 02:21:03;;;;;;;0.30;0.30;;;;;;;;;;5072842;28;20217;-28
2023/03/09 02:23:36;;;;;;;0.20;0.20;;;;;;;;;;5065094;28;20207;-29
2023/03/09 02:26:05;;;;;;;0.40;0.20;;;;;;;;;;5072177;28;20229;-31
2023/03/09 02:28:34;;;;;;;0.20;0.20;;;;;;;;;;5064744;28;20220;-31
2023/03/09 02:31:01;;;;;;;0.47;0.30;;;;;;;;;;5067890;28;20216;-30
2023/03/09 02:33:30;;;;;;;0.60;0.30;;;;;;;;;;5071718;28;20217;-31
2023/03/09 02:35:58;;;;;;;0.40;0.20;;;;;;;;;;5068079;28;20210;-37
2023/03/09 02:38:25;;;;;;;0.40;0.10;;;;;;;;;;5065089;28;20201;-28
2023/03/09 02:40:54;;;;;;;0.30;0.30;;;;;;;;;;5071885;28;20197;-31
2023/03/09 02:43:22;;;;;;;0.30;0.30;;;;;;;;;;5065088;28;20206;-32
2023/03/09 02:45:51;;;;;;;0.57;0.20;;;;;;;;;;5069767;28;20215;-27
2023/03/09 02:48:18;;;;;;;1.13;0.40;;;;;;;;;;5071852;28;20229;-32
2023/03/09 02:50:45;;;;;;;0.40;0.40;;;;;;;;;;5072583;28;20205;-34
2023/03/09 02:53:13;;;;;;;0.53;0.53;;;;;;;;;;5065664;28;20221;-27
2023/03/09 02:55:40;;;;;;;0.33;0.20;;;;;;;;;;5057425;28;20205;-38
2023/03/09 02:58:07;;;;;;;0.10;0.10;;;;;;;;;;5069897;28;20217;-29
2023/03/09 03:00:34;;;;;;;0.20;0.20;;;;;;;;;;5061321;28;20283;-35
2023/03/09 03:03:05;;;;;;;0.47;0.30;;;;;;;;;;5071337;28;20197;-30
2023/03/09 03:05:32;;;;;;;0.50;0.30;;;;;;;;;;5072427;28;20207;-28
2023/03/09 03:07:59;;;;;;;0.10;0.10;;;;;;;;;;5065683;28;20240;-32
2023/03/09 03:10:27;;;;;;;1.37;0.30;;;;;;;;;;5064997;28;20208;-34
2023/03/09 03:12:54;;;;;;;0.67;0.10;;;;;;;;;;5068608;28;20221;-26
2023/03/09 03:15:21;;;;;;;0.10;0.10;;;;;;;;;;5067995;28;20209;-29
2023/03/09 03:17:48;;;;;;;0.20;0.20;;;;;;;;;;5071620;28;20229;-31
2023/03/09 03:20:16;;;;;;;0.37;0.10;;;;;;;;;;5071673;28;20287;-33
2023/03/09 03:22:44;;;;;;;0.10;0.10;;;;;;;;;;5069230;28;20198;-33
2023/03/09 03:25:11;;;;;;;0.30;0.30;;;;;;;;;;5065208;28;20221;-32
2023/03/09 03:27:38;;;;;;;0.10;0.10;;;;;;;;;;5069915;28;20228;-35
2023/03/09 03:30:06;;;;;;;0.20;0.20;;;;;;;;;;5056204;28;20583;-31
2023/03/09 03:32:33;;;;;;;0.30;0.30;;;;;;;;;;5071377;28;20213;-32
2023/03/09 03:35:00;;;;;;;0.60;0.23;;;;;;;;;;5071402;28;20205;-30
2023/03/09 03:37:29;;;;;;;0.20;0.20;;;;;;;;;;5064229;28;20222;-27
2023/03/09 03:39:56;;;;;;;1.07;0.20;;;;;;;;;;5063836;28;20205;-33
2023/03/09 03:42:24;;;;;;;1.27;0.33;;;;;;;;;;5071364;28;20189;-31
2023/03/09 03:44:51;;;;;;;1.00;0.20;;;;;;;;;;5063359;28;20209;-32
2023/03/09 03:47:18;;;;;;;1.20;0.30;;;;;;;;;;5072871;28;20252;-30
2023/03/09 03:49:45;;;;;;;0.27;0.23;;;;;;;;;;5075091;28;20292;-30
2023/03/09 03:54:49;;;;;;;0.20;0.20;;;;;;;;;;5144870;22;20244;-27
2023/03/09 03:57:17;;;;;;;0.50;0.50;;;;;;;;;;5083091;28;20221;-28
2023/03/09 03:59:44;;;;;;;0.50;0.30;;;;;;;;;;5078251;28;20201;-29
2023/03/09 04:02:11;;;;;;;0.73;0.30;;;;;;;;;;5088268;28;20200;-28
2023/03/09 04:04:38;;;;;;;0.83;0.30;;;;;;;;;;5091403;28;20213;-27
2023/03/09 04:07:05;;;;;;;0.20;0.20;;;;;;;;;;5088728;28;20231;-31
2023/03/09 04:09:32;;;;;;;0.33;0.33;;;;;;;;;;5084804;28;20697;-33
2023/03/09 04:12:01;;;;;;;0.20;0.20;;;;;;;;;;5091168;28;20212;-33
2023/03/09 04:14:28;;;;;;;0.20;0.20;;;;;;;;;;5087118;28;20234;-30
2023/03/09 04:16:55;;;;;;;3.10;0.20;;;;;;;;;;5075679;28;20722;-32
2023/03/09 04:19:22;;;;;;;0.87;0.23;;;;;;;;;;5070633;28;20205;-30
2023/03/09 04:21:49;;;;;;;0.40;0.20;;;;;;;;;;5071005;28;20205;-28
2023/03/09 04:24:16;;;;;;;0.17;0.17;;;;;;;;;;5080239;28;20208;-31
2023/03/09 04:26:43;;;;;;;0.67;0.50;;;;;;;;;;5070715;28;20230;-30
2023/03/09 04:29:12;;;;;;;0.27;0.23;;;;;;;;;;5081251;28;20224;-30
2023/03/09 04:31:39;;;;;;;0.97;0.37;;;;;;;;;;5088359;28;20211;-30
2023/03/09 04:34:06;;;;;;;0.30;0.27;;;;;;;;;;5092648;28;20232;-33
2023/03/09 04:36:34;;;;;;;1.03;0.30;;;;;;;;;;5091941;28;20609;-31
2023/03/09 04:39:01;;;;;;;2.17;0.47;;;;;;;;;;5079155;28;20675;-29
2023/03/09 04:41:28;;;;;;;0.53;0.37;;;;;;;;;;5075868;28;20203;-30
2023/03/09 04:43:55;;;;;;;2.27;0.40;;;;;;;;;;5089140;28;20200;-30
2023/03/09 04:46:24;;;;;;;0.60;0.60;;;;;;;;;;5080654;28;20232;-29
2023/03/09 04:48:51;;;;;;;0.70;0.70;;;;;;;;;;5084742;28;20196;-30
2023/03/09 04:51:18;;;;;;;2.90;0.70;;;;;;;;;;5084447;28;20238;-32
2023/03/09 04:53:45;;;;;;;2.43;0.53;;;;;;;;;;5081153;28;20256;-30
2023/03/09 04:56:13;;;;;;;0.57;0.50;;;;;;;;;;5069575;28;20207;-31
2023/03/09 04:58:40;;;;;;;2.30;0.73;;;;;;;;;;5070842;28;20203;-30
2023/03/09 05:01:07;;;;;;;1.13;0.63;;;;;;;;;;5075066;28;20212;-29
2023/03/09 05:03:36;;;;;;;2.33;0.67;;;;;;;;;;5081096;28;20197;-31
2023/03/09 05:06:03;;;;;;;1.90;1.00;;;;;;;;;;5090291;28;20222;-32
2023/03/09 05:08:30;;;;;;;4.43;1.07;;;;;;;;;;5078640;28;20204;-30
2023/03/09 05:10:57;;;;;;;3.67;0.80;;;;;;;;;;5079162;28;20201;-32
2023/03/09 05:13:24;;;;;;;2.33;1.07;;;;;;;;;;5083809;28;20228;-29
2023/03/09 05:15:52;;;;;;;3.10;1.10;;;;;;;;;;5078797;28;20205;-31
2023/03/09 05:18:19;;;;;;;2.83;1.07;;;;;;;;;;5069335;28;20220;-28
2023/03/09 05:20:48;;;;;;;1.00;0.53;;;;;;;;;;5070143;28;20250;-30
2023/03/09 05:23:15;;;;;;;3.07;1.00;;;;;;;;;;5073978;28;20209;-33
2023/03/09 05:25:42;;;;;;;3.43;0.90;;;;;;;;;;5075849;28;20526;-28
2023/03/09 05:28:11;;;;;;;7.23;1.20;;;;;;;;;;5081475;28;20231;-33
2023/03/09 05:30:38;;;;;;;4.27;1.03;;;;;;;;;;5075337;28;20201;-29
2023/03/09 05:33:05;;;;;;;7.17;0.90;;;;;;;;;;5077315;28;20227;-31
2023/03/09 05:35:32;;;;;;;6.20;1.27;;;;;;;;;;5069598;28;20213;-29
2023/03/09 05:38:01;;;;;;;1.37;0.80;;;;;;;;;;5070996;28;20225;-32
2023/03/09 05:40:30;;;;;;;2.73;1.27;;;;;;;;;;5082976;28;20642;-31
2023/03/09 05:42:58;;;;;;;7.83;1.10;;;;;;;;;;5085283;28;20236;-31
2023/03/09 05:45:25;;;;;;;3.33;1.00;;;;;;;;;;5082235;28;20205;-31
2023/03/09 05:47:52;;;;;;;5.90;1.20;;;;;;;;;;5075927;28;20224;-31
2023/03/09 05:50:19;;;;;;;2.63;0.90;;;;;;;;;;5089530;28;20205;-30
2023/03/09 05:52:46;;;;;;;3.80;1.20;;;;;;;;;;5078950;28;20277;-29
2023/03/09 05:55:15;;;;;;;4.83;1.17;;;;;;;;;;5083810;28;20197;-28
2023/03/09 05:57:42;;;;;;;3.90;1.20;;;;;;;;;;5068251;28;20228;-31
2023/03/09 06:00:10;;;;;;;5.77;1.43;;;;;;;;;;5079080;28;20201;-30
2023/03/09 06:02:37;;;;;;;3.27;1.57;;;;;;;;;;5089473;28;20201;-31
2023/03/09 06:05:05;;;;;;;6.73;1.43;;;;;;;;;;5091609;28;20288;-32
2023/03/09 06:07:35;;;;;;;1.93;0.80;;;;;;;;;;5083051;28;20216;-29
2023/03/09 06:10:02;;;;;;;6.63;1.20;;;;;;;;;;5076391;28;20205;-33
2023/03/09 06:12:31;;;;;;;7.03;1.93;;;;;;;;;;5083935;28;20208;-30
2023/03/09 06:14:58;;;;;;;5.97;1.33;;;;;;;;;;5087578;28;20228;-31
2023/03/09 06:17:25;;;;;;;9.30;1.30;;;;;;;;;;5079792;28;20260;-29
2023/03/09 06:19:54;;;;;;;4.43;1.17;;;;;;;;;;5097068;28;20204;-31
2023/03/09 06:22:21;;;;;;;2.93;1.20;;;;;;;;;;5088244;28;20205;-28
2023/03/09 06:24:48;;;;;;;3.80;1.33;;;;;;;;;;5090739;28;20189;-32
2023/03/09 06:27:15;;;;;;;3.40;1.10;;;;;;;;;;5076608;28;20571;-30
2023/03/09 06:29:44;;;;;;;2.70;1.13;;;;;;;;;;5074380;28;20201;-31
2023/03/09 06:32:11;;;;;;;2.10;1.23;;;;;;;;;;5091636;28;20299;-30
2023/03/09 06:34:38;;;;;;;3.00;1.30;;;;;;;;;;5074954;28;20221;-28
2023/03/09 06:37:05;;;;;;;4.13;1.27;;;;;;;;;;5080198;28;20307;-27
2023/03/09 06:39:32;;;;;;;3.23;1.10;;;;;;;;;;5086815;28;20193;-32
2023/03/09 06:42:02;;;;;;;4.77;1.70;;;;;;;;;;5079143;28;20201;-30
2023/03/09 06:44:29;;;;;;;2.70;0.90;;;;;;;;;;5078478;28;20181;-26
2023/03/09 06:46:57;;;;;;;4.10;1.00;;;;;;;;;;5092720;28;20225;-33
2023/03/09 06:49:24;;;;;;;4.50;1.00;;;;;;;;;;5096176;28;20204;-28
2023/03/09 06:51:52;;;;;;;2.67;0.93;;;;;;;;;;5092553;28;20200;-29
2023/03/09 06:54:19;;;;;;;3.70;1.00;;;;;;;;;;5079888;28;20228;-27
2023/03/09 06:56:46;;;;;;;3.87;1.03;;;;;;;;;;5088411;28;20220;-29
2023/03/09 06:59:14;;;;;;;5.40;1.27;;;;;;;;;;5087099;28;20207;-28
2023/03/09 07:01:41;;;;;;;4.50;1.10;;;;;;;;;;5093997;28;20596;-30
2023/03/09 07:04:10;;;;;;;6.03;1.20;;;;;;;;;;5077218;28;20196;-32
2023/03/09 07:06:37;;;;;;;2.37;1.23;;;;;;;;;;5075351;28;20232;-31
2023/03/09 07:09:04;;;;;;;5.33;1.40;;;;;;;;;;5082040;28;20205;-29
2023/03/09 07:11:32;;;;;;;3.53;1.07;;;;;;;;;;5085594;28;20204;-29
2023/03/09 07:13:59;;;;;;;1.80;0.90;;;;;;;;;;5088932;28;20838;-29
2023/03/09 07:16:27;;;;;;;2.57;0.90;;;;;;;;;;5085515;28;20233;-33
2023/03/09 07:18:54;;;;;;;5.97;1.30;;;;;;;;;;5088950;28;20207;-28
2023/03/09 07:21:22;;;;;;;2.27;0.83;;;;;;;;;;5089657;28;20207;-27
2023/03/09 07:23:50;;;;;;;5.73;1.03;;;;;;;;;;5080929;28;20193;-28
2023/03/09 07:26:17;;;;;;;5.50;1.33;;;;;;;;;;5081645;28;20225;-28
2023/03/09 07:28:44;;;;;;;2.10;0.90;;;;;;;;;;5076753;28;20207;-30
2023/03/09 07:31:12;;;;;;;3.50;1.30;;;;;;;;;;5072081;28;20220;-31
2023/03/09 07:33:40;;;;;;;1.07;1.00;;;;;;;;;;5078670;28;20217;-30
2023/03/09 07:36:07;;;;;;;4.47;1.20;;;;;;;;;;5072600;28;20208;-30
2023/03/09 07:38:36;;;;;;;5.40;1.00;;;;;;;;;;5075682;28;20224;-31
2023/03/09 07:41:03;;;;;;;6.03;1.20;;;;;;;;;;5089458;28;20204;-33
2023/03/09 07:43:30;;;;;;;2.70;0.90;;;;;;;;;;5090445;28;20201;-29
2023/03/09 07:45:57;;;;;;;3.50;1.10;;;;;;;;;;5089720;28;20296;-32
2023/03/09 07:48:25;;;;;;;2.40;0.93;;;;;;;;;;5073161;28;20635;-30
2023/03/09 07:50:57;;;;;;;3.33;0.80;;;;;;;;;;5073341;28;20207;-28
2023/03/09 07:53:25;;;;;;;3.20;1.30;;;;;;;;;;5079694;28;20224;-30
2023/03/09 07:55:56;;;;;;;3.73;1.23;;;;;;;;;;5078114;28;20208;-28
2023/03/09 07:58:24;;;;;;;2.20;0.80;;;;;;;;;;5073263;28;20197;-30
2023/03/09 08:00:51;;;;;;;3.87;0.83;;;;;;;;;;5087364;28;20200;-30
2023/03/09 08:03:18;;;;;;;1.37;0.80;;;;;;;;;;5084155;28;20207;-29
2023/03/09 08:05:46;;;;;;;4.10;1.07;;;;;;;;;;5093407;28;20200;-31
2023/03/09 08:08:13;;;;;;;2.03;1.07;;;;;;;;;;5079305;28;20257;-30
2023/03/09 08:10:42;;;;;;;2.50;1.00;;;;;;;;;;5077202;28;20199;-30
2023/03/09 08:13:11;;;;;;;2.80;0.90;;;;;;;;;;5073354;28;20193;-33
2023/03/09 08:15:38;;;;;;;6.57;1.00;;;;;;;;;;5076528;28;20666;-29
2023/03/09 08:18:05;;;;;;;2.20;0.93;;;;;;;;;;5082885;28;20213;-28
2023/03/09 08:20:33;;;;;;;2.37;0.97;;;;;;;;;;5091104;28;20209;-30
2023/03/09 08:23:00;;;;;;;2.30;1.00;;;;;;;;;;5082782;28;20196;-28
2023/03/09 08:25:27;;;;;;;1.17;0.50;;;;;;;;;;5083064;28;20297;-28
2023/03/09 08:27:54;;;;;;;6.60;1.20;;;;;;;;;;5089764;28;20212;-31
2023/03/09 08:30:22;;;;;;;4.00;1.00;;;;;;;;;;5083276;28;20204;-29
2023/03/09 08:32:50;;;;;;;2.13;0.77;;;;;;;;;;5078757;28;20213;-33
2023/03/09 08:35:17;;;;;;;2.43;0.93;;;;;;;;;;5070537;28;20217;-31
2023/03/09 08:37:45;;;;;;;1.93;1.07;;;;;;;;;;5069583;28;20232;-27
2023/03/09 08:40:13;;;;;;;1.80;0.70;;;;;;;;;;5073803;28;20208;-32
2023/03/09 08:42:40;;;;;;;2.53;0.83;;;;;;;;;;5080252;28;20188;-31
2023/03/09 08:45:08;;;;;;;2.73;0.73;;;;;;;;;;5086911;28;20196;-30
2023/03/09 08:47:36;;;;;;;3.97;1.13;;;;;;;;;;5084631;28;20208;-29
2023/03/09 08:50:04;;;;;;;1.07;0.57;;;;;;;;;;5092624;28;20201;-27
2023/03/09 08:52:34;;;;;;;4.43;1.20;;;;;;;;;;5089702;28;20193;-29
2023/03/09 08:55:01;;;;;;;5.87;1.03;;;;;;;;;;5082010;28;20231;-29
2023/03/09 08:57:29;;;;;;;3.60;0.67;;;;;;;;;;5081621;28;20216;-31
2023/03/09 08:59:56;;;;;;;3.43;0.90;;;;;;;;;;5081981;28;20203;-29
2023/03/09 09:02:23;;;;;;;2.83;0.70;;;;;;;;;;5079133;28;20201;-31
2023/03/09 09:04:52;;;;;;;2.83;0.80;;;;;;;;;;5072204;28;20198;-32
2023/03/09 09:07:20;;;;;;;2.77;1.07;;;;;;;;;;5075226;28;20220;-28
2023/03/09 09:09:48;;;;;;;0.93;0.87;;;;;;;;;;5086170;28;20212;-30
2023/03/09 09:12:15;;;;;;;3.57;0.80;;;;;;;;;;5074582;28;20208;-29
2023/03/09 09:14:43;;;;;;;1.23;0.63;;;;;;;;;;5073720;28;20227;-27
2023/03/09 09:17:11;;;;;;;1.93;0.90;;;;;;;;;;5080891;28;20220;-30
2023/03/09 09:19:48;;;;;;;1.53;0.70;;;;;;;;;;5092112;28;20207;-31
2023/03/09 09:22:16;;;;;;;4.83;0.90;;;;;;;;;;5085575;28;20204;-28
2023/03/09 09:24:43;;;;;;;2.37;0.70;;;;;;;;;;5071860;28;20208;-30
2023/03/09 09:27:12;;;;;;;2.57;0.60;;;;;;;;;;5071502;28;20210;-29
2023/03/09 09:29:39;;;;;;;3.30;0.93;;;;;;;;;;5075865;28;20203;-27
2023/03/09 09:32:06;;;;;;;2.10;0.90;;;;;;;;;;5079944;28;20224;-29
2023/03/09 09:34:34;;;;;;;5.77;1.00;;;;;;;;;;5092058;28;20304;-32
2023/03/09 09:37:02;;;;;;;3.97;1.00;;;;;;;;;;5078546;28;20225;-29
2023/03/09 09:39:31;;;;;;;7.20;0.77;;;;;;;;;;5079242;28;20280;-30
2023/03/09 09:42:00;;;;;;;2.20;1.07;;;;;;;;;;5088769;28;20207;-30
2023/03/09 09:44:30;;;;;;;6.83;1.10;;;;;;;;;;5080425;28;20197;-31
2023/03/09 09:46:58;;;;;;;3.47;0.80;;;;;;;;;;5073098;28;20221;-29
2023/03/09 09:49:27;;;;;;;2.40;0.50;;;;;;;;;;5094667;28;20200;-31
2023/03/09 09:52:03;;;;;;;2.00;0.77;;;;;;;;;;5086317;28;20666;-31
2023/03/09 09:54:35;;;;;;;1.13;0.47;;;;;;;;;;5184638;22;20224;-24
2023/03/09 09:57:04;;;;;;;2.63;0.97;;;;;;;;;;5086258;28;20213;-24
2023/03/09 09:59:34;;;;;;;3.87;0.67;;;;;;;;;;5077017;28;20188;-22
2023/03/09 10:02:04;;;;;;;1.50;0.63;;;;;;;;;;5084982;28;20205;-27
2023/03/09 10:04:34;;;;;;;0.83;0.50;;;;;;;;;;5093410;28;20203;-23
2023/03/09 10:07:04;;;;;;;0.83;0.83;;;;;;;;;;5090254;28;20234;-26
2023/03/09 10:09:33;;;;;;;0.80;0.50;;;;;;;;;;5083524;28;20208;-27
2023/03/09 10:12:03;;;;;;;3.03;0.50;;;;;;;;;;5090924;28;20192;-25
2023/03/09 10:14:33;;;;;;;1.97;0.40;;;;;;;;;;5083705;28;20225;-25
2023/03/09 10:17:04;;;;;;;1.70;0.90;;;;;;;;;;5082193;28;20231;-25
2023/03/09 10:19:33;;;;;;;2.93;0.63;;;;;;;;;;5095242;28;20185;-23
2023/03/09 10:22:01;;;;;;;3.40;0.47;;;;;;;;;;5092317;28;20265;-21
2023/03/09 10:24:29;;;;;;;1.30;0.50;;;;;;;;;;5087506;28;20201;-26
2023/03/09 10:26:59;;;;;;;2.80;0.77;;;;;;;;;;5081786;28;20219;-22
2023/03/09 10:29:28;;;;;;;4.50;0.70;;;;;;;;;;5087820;28;20212;-27
2023/03/09 10:31:58;;;;;;;3.30;0.70;;;;;;;;;;5074447;28;20197;-24
2023/03/09 10:34:25;;;;;;;1.47;0.70;;;;;;;;;;5074385;28;20226;-22
2023/03/09 10:37:00;;;;;;;2.27;0.80;;;;;;;;;;5082186;28;20307;-25
2023/03/09 10:39:28;;;;;;;4.60;0.50;;;;;;;;;;5090166;28;20215;-27
2023/03/09 10:41:57;;;;;;;4.43;0.73;;;;;;;;;;5074036;28;20259;-25
2023/03/09 10:44:26;;;;;;;1.33;0.60;;;;;;;;;;5074101;28;20201;-23
2023/03/09 10:46:55;;;;;;;5.47;0.80;;;;;;;;;;5089228;28;20216;-25
2023/03/09 10:49:22;;;;;;;1.73;0.40;;;;;;;;;;5076214;28;20231;-23
2023/03/09 10:51:55;;;;;;;2.17;0.77;;;;;;;;;;5075277;28;20208;-26
2023/03/09 10:54:24;;;;;;;1.07;0.50;;;;;;;;;;5091013;28;20208;-24
2023/03/09 10:56:52;;;;;;;1.07;0.53;;;;;;;;;;5084645;28;20309;-23
2023/03/09 10:59:20;;;;;;;1.57;0.60;;;;;;;;;;5083930;28;20205;-27
2023/03/09 11:01:51;;;;;;;1.07;0.50;;;;;;;;;;5085197;28;20203;-27
2023/03/09 11:04:42;;;;;;;4.10;1.10;;;;;;;;;;5076282;28;20201;-22
2023/03/09 11:07:19;;;;;;;1.50;0.77;;;;;;;;;;5059517;28;20229;-24
2023/03/09 11:09:52;;;;;;;2.20;0.67;;;;;;;;;;5074400;28;20193;-21
2023/03/09 11:12:23;;;;;;;1.17;0.63;;;;;;;;;;5092515;28;20197;-26
2023/03/09 11:14:51;;;;;;;1.80;0.50;;;;;;;;;;5082114;28;20225;-25
2023/03/09 11:17:32;;;;;;;1.90;0.60;;;;;;;;;;5082644;28;20230;-24
2023/03/09 11:20:18;;;;;;;1.57;0.63;;;;;;;;;;5074422;28;20186;-23
2023/03/09 11:22:47;;;;;;;1.43;0.80;;;;;;;;;;5091584;28;20196;-26
2023/03/09 11:25:17;;;;;;;2.53;1.43;;;;;;;;;;5086445;28;20196;-24
2023/03/09 11:27:47;;;;;;;5.93;0.93;;;;;;;;;;5093336;28;20251;-23
2023/03/09 11:30:16;;;;;;;1.80;0.63;;;;;;;;;;5086052;28;20205;-23
2023/03/09 11:32:45;;;;;;;2.70;0.70;;;;;;;;;;5087478;28;20192;-23
2023/03/09 11:35:14;;;;;;;1.57;0.63;;;;;;;;;;5094585;28;20227;-22
2023/03/09 11:37:44;;;;;;;3.57;0.87;;;;;;;;;;5087947;28;20229;-23
2023/03/09 11:40:14;;;;;;;2.10;0.70;;;;;;;;;;5089189;28;20211;-22
2023/03/09 11:42:45;;;;;;;4.57;0.50;;;;;;;;;;5080173;28;20195;-24
2023/03/09 11:45:15;;;;;;;1.40;0.53;;;;;;;;;;5080277;28;20203;-21
2023/03/09 11:47:44;;;;;;;4.47;0.83;;;;;;;;;;5085828;28;20213;-25
2023/03/09 11:50:16;;;;;;;1.73;0.57;;;;;;;;;;5093546;28;20204;-25
2023/03/09 11:52:46;;;;;;;1.03;0.57;;;;;;;;;;5083958;28;20193;-23
2023/03/09 11:55:15;;;;;;;3.60;1.07;;;;;;;;;;5092886;28;20234;-22
2023/03/09 11:57:45;;;;;;;0.40;0.40;;;;;;;;;;5073148;28;20213;-25
2023/03/09 12:00:14;;;;;;;2.63;1.00;;;;;;;;;;5078676;28;20293;-22
2023/03/09 12:02:48;;;;;;;1.63;0.53;;;;;;;;;;5080868;28;20204;-26
2023/03/09 12:05:16;;;;;;;2.77;0.73;;;;;;;;;;5073535;28;20204;-25
2023/03/09 12:07:49;;;;;;;3.37;0.97;;;;;;;;;;5074708;28;20224;-27
2023/03/09 12:10:18;;;;;;;4.23;1.07;;;;;;;;;;5090161;28;20496;-25
2023/03/09 12:12:48;;;;;;;5.47;0.80;;;;;;;;;;5079295;28;20193;-24
2023/03/09 12:15:18;;;;;;;2.13;0.70;;;;;;;;;;5079199;28;20214;-24
2023/03/09 12:17:48;;;;;;;7.63;0.87;;;;;;;;;;5093651;28;20209;-29
2023/03/09 12:20:23;;;;;;;1.63;0.50;;;;;;;;;;5093832;28;20215;-23
2023/03/09 12:22:51;;;;;;;2.87;0.70;;;;;;;;;;5090802;28;20282;-26
2023/03/09 12:25:19;;;;;;;4.00;0.90;;;;;;;;;;5073977;28;20280;-24
2023/03/09 12:27:54;;;;;;;1.63;0.80;;;;;;;;;;5071750;28;20228;-25
2023/03/09 12:30:23;;;;;;;2.73;0.70;;;;;;;;;;5079765;28;20207;-26
2023/03/09 12:32:51;;;;;;;3.07;0.60;;;;;;;;;;5078071;28;20197;-25
2023/03/09 12:35:42;;;;;;;1.73;0.77;;;;;;;;;;5072140;28;20220;-27
2023/03/09 12:38:22;;;;;;;3.90;0.70;;;;;;;;;;5084684;28;20312;-23
2023/03/09 12:40:50;;;;;;;4.37;0.73;;;;;;;;;;5083391;28;20208;-26
2023/03/09 12:43:35;;;;;;;2.87;0.87;;;;;;;;;;5087927;28;20207;-28
2023/03/09 12:46:16;;;;;;;0.90;0.57;;;;;;;;;;5071964;28;20197;-25
2023/03/09 12:48:45;;;;;;;1.90;0.80;;;;;;;;;;5085189;28;20203;-23
2023/03/09 12:51:18;;;;;;;1.77;0.80;;;;;;;;;;5092623;28;20189;-22
2023/03/09 12:54:01;;;;;;;0.20;0.20;;;;;;;;;;5077729;28;20205;-26
2023/03/09 12:56:29;;;;;;;3.53;0.77;;;;;;;;;;5079664;28;20263;-28
2023/03/09 12:58:58;;;;;;;2.10;0.93;;;;;;;;;;5074391;28;20205;-21
2023/03/09 13:01:30;;;;;;;1.80;0.87;;;;;;;;;;5083806;28;20203;-27
2023/03/09 13:04:12;;;;;;;2.20;0.70;;;;;;;;;;5077468;28;20194;-25
2023/03/09 13:06:45;;;;;;;1.43;0.40;;;;;;;;;;5073774;28;20253;-28
2023/03/09 13:09:21;;;;;;;1.53;0.43;;;;;;;;;;5084729;28;20202;-26
2023/03/09 13:11:50;;;;;;;2.23;0.70;;;;;;;;;;5092990;28;20204;-28
2023/03/09 13:14:37;;;;;;;1.63;0.50;;;;;;;;;;5081055;28;20201;-27
2023/03/09 13:17:29;;;;;;;2.87;0.77;;;;;;;;;;5084173;28;20223;-28
2023/03/09 13:19:57;;;;;;;1.40;0.77;;;;;;;;;;5073337;28;20205;-25
2023/03/09 13:22:26;;;;;;;2.07;0.90;;;;;;;;;;5071112;28;20197;-27
2023/03/09 13:25:05;;;;;;;2.93;0.90;;;;;;;;;;5085306;28;20208;-25
2023/03/09 13:27:35;;;;;;;3.33;0.83;;;;;;;;;;5072264;28;20220;-26
2023/03/09 13:30:10;;;;;;;4.73;1.50;;;;;;;;;;5079903;28;20239;-29
2023/03/09 13:32:41;;;;;;;2.50;0.80;;;;;;;;;;5088358;28;20310;-27
2023/03/09 13:35:15;;;;;;;1.43;0.63;;;;;;;;;;5072236;28;20185;-27
2023/03/09 13:37:43;;;;;;;5.57;1.00;;;;;;;;;;5073038;28;20211;-28
2023/03/09 13:40:26;;;;;;;1.67;0.80;;;;;;;;;;5080086;28;20215;-25
2023/03/09 13:42:53;;;;;;;2.17;1.00;;;;;;;;;;5084885;28;20197;-29
2023/03/09 13:45:21;;;;;;;0.97;0.60;;;;;;;;;;5079102;28;20200;-28
2023/03/09 13:47:52;;;;;;;3.37;0.90;;;;;;;;;;5083661;28;20220;-28
2023/03/09 13:50:20;;;;;;;2.47;0.83;;;;;;;;;;5092417;28;20184;-24
2023/03/09 13:52:59;;;;;;;1.70;0.73;;;;;;;;;;5089105;28;20201;-25
2023/03/09 13:55:27;;;;;;;2.33;0.73;;;;;;;;;;5088872;28;20204;-27
2023/03/09 13:57:55;;;;;;;1.70;0.70;;;;;;;;;;5083924;28;20221;-25
2023/03/09 14:00:25;;;;;;;1.40;0.40;;;;;;;;;;5078811;28;20208;-25
2023/03/09 14:02:53;;;;;;;2.57;0.93;;;;;;;;;;5071156;28;20204;-23
2023/03/09 14:05:22;;;;;;;2.67;0.80;;;;;;;;;;5071828;28;20240;-25
2023/03/09 14:07:51;;;;;;;1.43;0.63;;;;;;;;;;5079653;28;20225;-24
2023/03/09 14:10:21;;;;;;;1.77;0.80;;;;;;;;;;5080541;28;20205;-25
2023/03/09 14:12:48;;;;;;;0.70;0.50;;;;;;;;;;5086944;28;20211;-23
2023/03/09 14:15:17;;;;;;;1.00;0.57;;;;;;;;;;5074097;28;20212;-24
2023/03/09 14:17:44;;;;;;;0.40;0.40;;;;;;;;;;5078496;28;20278;-25
2023/03/09 14:20:18;;;;;;;2.03;0.80;;;;;;;;;;5070279;28;20201;-22
2023/03/09 14:22:45;;;;;;;1.33;0.50;;;;;;;;;;5072525;28;20193;-20
2023/03/09 14:25:22;;;;;;;1.10;0.63;;;;;;;;;;5076839;28;20201;-25
2023/03/09 14:27:49;;;;;;;0.97;0.67;;;;;;;;;;5070719;28;20216;-29
2023/03/09 14:30:35;;;;;;;0.53;0.30;;;;;;;;;;5074779;28;20201;-27
2023/03/09 14:33:02;;;;;;;3.17;0.80;;;;;;;;;;5078244;28;20194;-32
2023/03/09 14:35:34;;;;;;;1.20;0.60;;;;;;;;;;5070513;28;20255;-37
2023/03/09 14:38:01;;;;;;;1.17;0.60;;;;;;;;;;5075488;28;20220;-30
2023/03/09 14:40:29;;;;;;;1.70;0.70;;;;;;;;;;5085389;28;20201;-36
2023/03/09 14:43:11;;;;;;;1.83;0.93;;;;;;;;;;5081771;28;20197;-36
2023/03/09 14:45:39;;;;;;;1.00;0.60;;;;;;;;;;5074146;28;20201;-33
2023/03/09 14:48:08;;;;;;;2.43;0.60;;;;;;;;;;5090841;28;20216;-35
2023/03/09 14:50:37;;;;;;;2.60;0.60;;;;;;;;;;5095047;28;20208;-33
2023/03/09 14:53:04;;;;;;;4.43;0.80;;;;;;;;;;5087202;28;20202;-33
2023/03/09 14:55:31;;;;;;;1.63;0.67;;;;;;;;;;5086361;28;20285;-34
2023/03/09 14:57:58;;;;;;;5.17;0.97;;;;;;;;;;5075347;28;20232;-36